Time;durP1;ratioP1;P1;durP2;ratioP2;P2;SDS_P1;SDS_P2;PMS_P1;PMS_P2;Temp;Humidity;BMP_temperature;BMP_pressure;BME280_temperature;BME280_humidity;BME280_pressure;Samples;Min_cycle;Max_cycle;Signal;HPM_P1;HPM_P2
2023/06/13 00:01:04;;;;;;;4.53;2.80;;;21.30;57.90;;;;;;5118947;28;20044;-84
2023/06/13 00:03:30;;;;;;;5.45;3.08;;;21.20;57.90;;;;;;5114518;28;20463;-84
2023/06/13 00:06:01;;;;;;;4.78;3.28;;;21.20;57.60;;;;;;5114700;28;20066;-84
2023/06/13 00:08:31;;;;;;;5.70;2.88;;;21.20;57.50;;;;;;5113594;28;20024;-84
2023/06/13 00:10:58;;;;;;;3.60;2.53;;;21.10;57.80;;;;;;5112439;28;20537;-79
2023/06/13 00:13:25;;;;;;;4.55;3.30;;;21.10;57.70;;;;;;5113928;28;20019;-84
2023/06/13 00:15:56;;;;;;;4.53;2.92;;;21.10;57.80;;;;;;5113830;28;20036;-84
2023/06/13 00:18:22;;;;;;;;;;;21.00;57.70;;;;;;5114252;28;20066;-84
2023/06/13 00:20:49;;;;;;;4.10;2.92;;;21.00;58.10;;;;;;5113598;28;19949;-84
2023/06/13 00:23:15;;;;;;;4.78;2.88;;;20.90;58.00;;;;;;5112453;28;20051;-84
2023/06/13 00:25:41;;;;;;;4.38;2.90;;;20.90;58.00;;;;;;5113455;28;20494;-84
2023/06/13 00:28:07;;;;;;;4.00;2.70;;;20.80;58.70;;;;;;5112879;28;20023;-84
2023/06/13 00:30:33;;;;;;;3.50;2.63;;;20.70;58.30;;;;;;5113574;28;20058;-84
2023/06/13 00:32:59;;;;;;;5.22;2.80;;;20.70;58.30;;;;;;5113997;28;20460;-83
2023/06/13 00:35:25;;;;;;;3.70;2.63;;;20.70;58.40;;;;;;5113441;28;20087;-84
2023/06/13 00:37:54;;;;;;;4.03;2.38;;;20.70;58.50;;;;;;5113335;28;20502;-83
2023/06/13 00:40:21;;;;;;;3.72;2.75;;;20.70;58.30;;;;;;5112731;28;20031;-83
2023/06/13 00:42:47;;;;;;;5.40;3.08;;;20.60;58.40;;;;;;5113129;28;20050;-84
2023/06/13 00:45:22;;;;;;;3.75;2.55;;;20.60;58.50;;;;;;5112810;28;20023;-84
2023/06/13 00:47:55;;;;;;;3.97;2.88;;;20.60;58.50;;;;;;5114405;28;20121;-84
2023/06/13 00:50:30;;;;;;;3.80;2.97;;;20.60;58.70;;;;;;5113014;28;20065;-84
2023/06/13 00:52:59;;;;;;;4.00;2.85;;;20.60;59.00;;;;;;5113052;28;20027;-84
2023/06/13 00:55:26;;;;;;;6.88;2.90;;;20.60;59.00;;;;;;5114501;28;20054;-84
2023/06/13 00:57:56;;;;;;;5.15;2.83;;;20.50;59.10;;;;;;5114219;28;20023;-84
2023/06/13 01:00:25;;;;;;;3.65;2.60;;;20.50;58.80;;;;;;5113697;28;20024;-84
2023/06/13 01:02:55;;;;;;;5.03;2.70;;;20.50;58.40;;;;;;5113184;28;20038;-83
2023/06/13 01:05:27;;;;;;;5.25;2.80;;;20.40;58.40;;;;;;5112614;28;20092;-83
2023/06/13 01:07:57;;;;;;;4.30;2.80;;;20.40;58.60;;;;;;5113909;28;20034;-84
2023/06/13 01:10:25;;;;;;;5.93;3.00;;;20.30;58.70;;;;;;5112414;28;20036;-83
2023/06/13 01:13:00;;;;;;;5.75;3.33;;;20.30;58.90;;;;;;5113005;28;20027;-84
2023/06/13 01:15:29;;;;;;;7.75;3.20;;;20.30;59.20;;;;;;5113044;28;20490;-84
2023/06/13 01:18:00;;;;;;;9.20;3.42;;;20.30;59.30;;;;;;5113270;28;20444;-84
2023/06/13 01:20:34;;;;;;;5.13;3.33;;;20.20;59.40;;;;;;5113500;28;20460;-84
2023/06/13 01:23:18;;;;;;;3.70;3.00;;;20.20;59.60;;;;;;5116293;28;20023;-82
2023/06/13 01:26:02;;;;;;;8.77;3.20;;;20.20;60.00;;;;;;5117710;28;20116;-84
2023/06/13 01:28:33;;;;;;;4.60;3.30;;;20.20;60.00;;;;;;5116999;28;20096;-84
2023/06/13 01:31:01;;;;;;;3.65;2.88;;;20.20;60.10;;;;;;5117052;28;20479;-84
2023/06/13 01:33:29;;;;;;;4.95;3.30;;;20.00;60.20;;;;;;5116470;28;20066;-84
2023/06/13 01:35:55;;;;;;;6.28;3.08;;;20.00;60.70;;;;;;5117536;28;20463;-84
2023/06/13 01:38:21;;;;;;;5.20;3.22;;;19.90;61.00;;;;;;5115769;28;20027;-84
2023/06/13 01:40:48;;;;;;;3.83;2.70;;;19.90;61.40;;;;;;5116094;28;20032;-83
2023/06/13 01:43:14;;;;;;;5.82;3.10;;;19.90;61.60;;;;;;5116680;28;20020;-83
2023/06/13 01:45:40;;;;;;;5.40;3.00;;;19.80;61.70;;;;;;5116110;28;20392;-83
2023/06/13 01:48:45;;;;;;;4.93;2.90;;;19.80;61.70;;;;;;5115389;28;20023;-82
2023/06/13 01:51:24;;;;;;;5.97;3.20;;;19.60;62.20;;;;;;5106997;28;20040;-83
2023/06/13 01:53:55;;;;;;;6.75;3.15;;;19.60;62.60;;;;;;5126213;28;20023;-83
2023/06/13 01:56:24;;;;;;;;;;;19.50;62.80;;;;;;5115860;28;20077;-84
2023/06/13 01:58:58;;;;;;;5.07;3.17;;;19.50;63.00;;;;;;5115914;28;19903;-83
2023/06/13 02:01:26;;;;;;;5.90;2.88;;;19.40;62.60;;;;;;5115246;28;20114;-83
2023/06/13 02:03:53;;;;;;;5.88;3.30;;;19.30;62.70;;;;;;5116947;28;20034;-84
2023/06/13 02:06:18;;;;;;;5.35;2.78;;;19.40;63.00;;;;;;5116591;28;20063;-84
2023/06/13 02:08:45;;;;;;;6.68;3.13;;;19.20;63.30;;;;;;5116926;28;20374;-82
2023/06/13 02:11:11;;;;;;;5.50;2.80;;;19.30;63.70;;;;;;5116491;28;20468;-82
2023/06/13 02:13:37;;;;;;;5.72;3.33;;;19.20;63.50;;;;;;5115622;28;20028;-83
2023/06/13 02:16:03;;;;;;;4.60;3.22;;;19.20;63.60;;;;;;5119590;28;20023;-84
2023/06/13 02:18:30;;;;;;;5.20;2.95;;;19.20;63.80;;;;;;5118840;28;20089;-83
2023/06/13 02:20:56;;;;;;;5.95;2.90;;;19.00;63.80;;;;;;5119121;28;20049;-83
2023/06/13 02:23:21;;;;;;;4.15;2.80;;;18.90;64.30;;;;;;5117557;28;20024;-83
2023/06/13 02:25:47;;;;;;;4.68;3.10;;;18.90;64.40;;;;;;5118612;28;20065;-83
2023/06/13 02:28:13;;;;;;;5.57;3.08;;;18.90;64.70;;;;;;5117036;28;20032;-83
2023/06/13 02:30:39;;;;;;;5.72;3.08;;;18.70;64.80;;;;;;5115537;28;20027;-83
2023/06/13 02:33:05;;;;;;;4.65;2.83;;;18.80;65.10;;;;;;5114182;28;20054;-78
2023/06/13 02:35:31;;;;;;;7.90;3.42;;;18.70;65.20;;;;;;5116565;28;20475;-83
2023/06/13 02:37:56;;;;;;;4.18;2.80;;;18.70;65.10;;;;;;5116324;28;20084;-84
2023/06/13 02:40:23;;;;;;;4.05;2.80;;;18.70;65.20;;;;;;5114884;28;20031;-83
2023/06/13 02:42:52;;;;;;;3.90;2.63;;;18.60;65.30;;;;;;5115292;28;20544;-85
2023/06/13 02:45:18;;;;;;;4.43;2.80;;;18.50;65.60;;;;;;5114702;28;20032;-86
2023/06/13 02:47:44;;;;;;;3.75;2.70;;;18.50;65.70;;;;;;5114989;28;20030;-85
2023/06/13 02:50:10;;;;;;;4.82;3.10;;;18.50;65.90;;;;;;5114505;28;20038;-84
2023/06/13 02:52:37;;;;;;;3.08;2.55;;;18.40;65.90;;;;;;5116074;28;20054;-82
2023/06/13 02:55:04;;;;;;;5.13;3.08;;;18.50;66.00;;;;;;5115233;28;20039;-85
2023/06/13 02:57:30;;;;;;;6.25;3.40;;;18.40;66.00;;;;;;5115276;28;20112;-84
2023/06/13 02:59:56;;;;;;;5.43;2.95;;;18.40;66.10;;;;;;5114859;28;20073;-85
2023/06/13 03:02:25;;;;;;;5.70;3.03;;;18.40;66.00;;;;;;5115252;28;20028;-86
2023/06/13 03:04:51;;;;;;;4.15;3.00;;;18.30;66.40;;;;;;5115061;28;20032;-86
2023/06/13 03:07:18;;;;;;;5.03;3.03;;;18.20;66.50;;;;;;5114052;28;20113;-85
2023/06/13 03:09:43;;;;;;;4.78;2.80;;;18.20;67.00;;;;;;5115854;28;20038;-84
2023/06/13 03:12:11;;;;;;;5.22;2.92;;;18.20;67.00;;;;;;5114194;28;20028;-83
2023/06/13 03:14:38;;;;;;;4.22;2.88;;;18.20;67.00;;;;;;5116154;28;20111;-84
2023/06/13 03:17:04;;;;;;;5.43;2.47;;;18.10;67.10;;;;;;5114978;28;20027;-84
2023/06/13 03:19:30;;;;;;;3.70;2.55;;;18.10;67.30;;;;;;5114500;28;20028;-84
2023/06/13 03:21:56;;;;;;;4.47;2.90;;;18.10;67.30;;;;;;5114669;28;20030;-84
2023/06/13 03:24:22;;;;;;;5.40;3.25;;;18.10;67.50;;;;;;5114969;28;20509;-84
2023/06/13 03:26:48;;;;;;;4.35;2.80;;;18.00;67.90;;;;;;5115569;28;20024;-84
2023/06/13 03:29:13;;;;;;;6.32;3.30;;;17.90;68.00;;;;;;5127154;28;20028;-85
2023/06/13 03:31:39;;;;;;;6.35;2.83;;;17.90;68.10;;;;;;5129837;28;20016;-85
2023/06/13 03:34:08;;;;;;;8.13;2.95;;;17.90;68.20;;;;;;5117991;28;20027;-85
2023/06/13 03:36:34;;;;;;;4.85;2.83;;;17.90;68.40;;;;;;5114203;28;20077;-84
2023/06/13 03:39:00;;;;;;;4.15;2.40;;;17.90;68.40;;;;;;5114488;28;20495;-84
2023/06/13 03:41:26;;;;;;;5.95;2.72;;;17.90;68.50;;;;;;5113770;28;20048;-85
2023/06/13 03:43:51;;;;;;;4.68;3.00;;;17.80;68.40;;;;;;5115018;28;20532;-85
2023/06/13 03:46:17;;;;;;;4.20;2.70;;;17.90;68.60;;;;;;5113724;28;20030;-84
2023/06/13 03:48:43;;;;;;;4.53;2.65;;;17.90;68.70;;;;;;5114052;28;20487;-84
2023/06/13 03:51:08;;;;;;;3.60;2.80;;;17.80;68.70;;;;;;5114980;28;20031;-84
2023/06/13 03:53:34;;;;;;;4.00;2.75;;;17.80;68.70;;;;;;5114903;28;20020;-84
2023/06/13 03:56:02;;;;;;;3.92;2.45;;;17.80;68.50;;;;;;5114446;28;20030;-85
2023/06/13 03:58:28;;;;;;;4.25;2.60;;;17.80;68.90;;;;;;5113411;28;20452;-84
2023/06/13 04:00:54;;;;;;;3.38;2.70;;;17.70;69.40;;;;;;5114035;28;20031;-85
2023/06/13 04:03:20;;;;;;;5.05;2.50;;;17.70;69.20;;;;;;5114509;28;20117;-84
2023/06/13 04:05:46;;;;;;;4.43;2.58;;;17.60;69.40;;;;;;5114121;28;20062;-85
2023/06/13 04:08:12;;;;;;;3.33;2.22;;;17.60;69.80;;;;;;5113482;28;20110;-83
2023/06/13 04:10:37;;;;;;;6.10;3.10;;;17.60;69.90;;;;;;5113724;28;20032;-84
2023/06/13 04:13:03;;;;;;;5.70;2.50;;;17.60;69.80;;;;;;5113761;28;20034;-84
2023/06/13 04:15:29;;;;;;;4.68;2.53;;;17.60;70.10;;;;;;5114486;28;20028;-84
2023/06/13 04:17:55;;;;;;;4.40;2.78;;;17.50;70.30;;;;;;5113919;28;20423;-85
2023/06/13 04:20:23;;;;;;;3.88;2.55;;;17.50;70.30;;;;;;5113254;28;20031;-84
2023/06/13 04:22:49;;;;;;;3.22;2.28;;;17.50;70.50;;;;;;5113521;28;20452;-85
2023/06/13 04:25:16;;;;;;;3.47;2.63;;;17.50;70.40;;;;;;5113245;28;20019;-84
2023/06/13 04:27:43;;;;;;;4.38;2.22;;;17.60;70.40;;;;;;5113509;28;20452;-85
2023/06/13 04:30:09;;;;;;;3.03;2.30;;;17.70;70.20;;;;;;5113587;28;20035;-84
2023/06/13 04:32:37;;;;;;;3.95;2.58;;;17.60;70.30;;;;;;5112763;28;20030;-85
2023/06/13 04:35:03;;;;;;;5.60;2.28;;;17.70;70.40;;;;;;5114726;28;20093;-85
2023/06/13 04:37:30;;;;;;;3.60;2.38;;;17.70;70.30;;;;;;5113118;28;20098;-84
2023/06/13 04:39:57;;;;;;;4.18;2.33;;;17.80;70.20;;;;;;5113398;28;20028;-85
2023/06/13 04:42:27;;;;;;;3.85;2.53;;;17.80;70.50;;;;;;5112578;28;20059;-82
2023/06/13 04:45:00;;;;;;;3.80;2.53;;;17.80;70.40;;;;;;5113129;28;20024;-82
2023/06/13 04:47:27;;;;;;;3.60;2.50;;;17.80;70.70;;;;;;5112665;28;20080;-84
2023/06/13 04:49:59;;;;;;;6.05;2.40;;;17.80;70.70;;;;;;5113279;28;20036;-85
2023/06/13 04:52:32;;;;;;;4.85;2.33;;;17.80;70.80;;;;;;5113602;28;20024;-84
2023/06/13 04:55:00;;;;;;;4.40;2.50;;;17.80;70.90;;;;;;5113552;28;20023;-84
2023/06/13 04:57:29;;;;;;;4.22;2.10;;;17.80;71.20;;;;;;5115574;28;20032;-84
2023/06/13 04:59:55;;;;;;;3.63;2.33;;;17.80;71.10;;;;;;5118044;28;20419;-84
2023/06/13 05:02:22;;;;;;;4.10;2.53;;;17.90;71.30;;;;;;5116341;28;20028;-84
2023/06/13 05:04:48;;;;;;;5.28;2.50;;;17.90;71.00;;;;;;5116871;28;20030;-84
2023/06/13 05:07:15;;;;;;;4.18;2.50;;;18.00;70.70;;;;;;5117889;28;20103;-80
2023/06/13 05:09:42;;;;;;;4.22;2.40;;;18.00;71.00;;;;;;5117238;28;20076;-83
2023/06/13 05:12:08;;;;;;;5.38;2.20;;;18.10;70.60;;;;;;5117130;28;20034;-83
2023/06/13 05:14:34;;;;;;;3.92;2.08;;;18.00;71.00;;;;;;5117689;28;20220;-82
2023/06/13 05:17:05;;;;;;;3.55;2.70;;;18.10;70.80;;;;;;5116692;28;20055;-83
2023/06/13 05:19:31;;;;;;;3.25;2.40;;;18.10;70.70;;;;;;5117485;28;20114;-83
2023/06/13 05:22:00;;;;;;;6.43;2.95;;;18.10;70.80;;;;;;5111432;27;20046;-80
2023/06/13 05:24:25;;;;;;;5.32;2.65;;;18.20;70.70;;;;;;5113853;27;20031;-83
2023/06/13 05:26:51;;;;;;;3.80;2.20;;;18.20;70.90;;;;;;5134040;27;20109;-83
2023/06/13 05:29:17;;;;;;;4.53;2.45;;;18.20;70.60;;;;;;5116947;27;20421;-83
2023/06/13 05:31:42;;;;;;;4.43;2.70;;;18.30;70.40;;;;;;5118792;27;20084;-83
2023/06/13 05:34:08;;;;;;;4.13;2.30;;;18.40;70.40;;;;;;5129063;27;20102;-83
2023/06/13 05:36:33;;;;;;;4.70;2.38;;;18.40;70.20;;;;;;5125965;27;20027;-84
2023/06/13 05:39:00;;;;;;;5.38;2.35;;;18.40;70.10;;;;;;5123381;27;20027;-83
2023/06/13 05:41:26;;;;;;;3.47;2.08;;;18.30;70.40;;;;;;5115054;28;20047;-84
2023/06/13 05:43:51;;;;;;;5.63;2.50;;;18.40;70.30;;;;;;5115729;27;20023;-84
2023/06/13 05:46:17;;;;;;;5.65;2.22;;;18.40;70.50;;;;;;5115317;28;20081;-83
2023/06/13 05:48:43;;;;;;;4.53;2.30;;;18.50;70.10;;;;;;5129008;27;20031;-84
2023/06/13 05:51:08;;;;;;;7.20;2.13;;;18.50;69.80;;;;;;5120364;27;20429;-84
2023/06/13 05:53:34;;;;;;;3.83;2.33;;;18.60;69.60;;;;;;5129583;27;20027;-84
2023/06/13 05:56:00;;;;;;;3.50;2.45;;;18.70;69.40;;;;;;5116325;28;20110;-84
2023/06/13 05:58:25;;;;;;;4.95;2.22;;;18.70;69.50;;;;;;5116263;28;20028;-83
2023/06/13 06:00:52;;;;;;;3.78;2.20;;;18.70;68.60;;;;;;5117598;28;20516;-83
2023/06/13 06:03:18;;;;;;;5.55;2.28;;;18.80;69.40;;;;;;5127911;27;20039;-80
2023/06/13 06:05:44;;;;;;;5.05;2.08;;;18.80;68.90;;;;;;5119446;27;20035;-84
2023/06/13 06:08:09;;;;;;;5.95;2.25;;;18.90;68.70;;;;;;5130875;27;20160;-84
2023/06/13 06:10:35;;;;;;;4.75;2.65;;;18.90;68.50;;;;;;5124071;27;20494;-84
2023/06/13 06:13:01;;;;;;;5.88;2.20;;;18.90;68.90;;;;;;5129800;27;20023;-84
2023/06/13 06:15:26;;;;;;;3.72;2.17;;;18.90;68.70;;;;;;5119495;27;20026;-83
2023/06/13 06:17:52;;;;;;;5.20;2.10;;;19.00;68.70;;;;;;5132923;27;20112;-84
2023/06/13 06:20:18;;;;;;;4.38;2.13;;;19.00;68.50;;;;;;5126087;27;20081;-78
2023/06/13 06:22:43;;;;;;;4.07;2.58;;;19.00;68.40;;;;;;5113873;27;20046;-84
2023/06/13 06:25:12;;;;;;;4.45;2.30;;;19.10;67.90;;;;;;5114704;28;20433;-83
2023/06/13 06:27:39;;;;;;;5.18;2.67;;;19.20;68.00;;;;;;5131079;27;20039;-83
2023/06/13 06:30:05;;;;;;;4.07;2.00;;;19.20;67.80;;;;;;5121131;27;20096;-83
2023/06/13 06:32:31;;;;;;;3.40;1.73;;;19.20;67.40;;;;;;5125027;27;20023;-84
2023/06/13 06:34:56;;;;;;;4.70;2.58;;;19.30;67.50;;;;;;5130186;27;20031;-83
2023/06/13 06:37:22;;;;;;;4.72;2.15;;;19.30;67.30;;;;;;5118915;27;20035;-84
2023/06/13 06:39:48;;;;;;;5.55;1.90;;;19.30;66.80;;;;;;5130501;27;20020;-83
2023/06/13 06:42:13;;;;;;;3.47;2.10;;;19.30;65.50;;;;;;5122466;27;20055;-83
2023/06/13 06:44:40;;;;;;;3.47;1.95;;;19.40;65.40;;;;;;5123575;27;20036;-84
2023/06/13 06:47:05;;;;;;;4.25;2.30;;;19.40;65.00;;;;;;5129804;27;20034;-84
2023/06/13 06:49:31;;;;;;;2.75;1.95;;;19.40;65.10;;;;;;5118622;27;20039;-83
2023/06/13 06:51:56;;;;;;;4.57;2.10;;;19.50;64.50;;;;;;5125459;27;20051;-83
2023/06/13 06:54:22;;;;;;;4.93;2.40;;;19.50;64.90;;;;;;5123343;27;20027;-83
2023/06/13 06:56:48;;;;;;;4.60;1.90;;;19.50;64.50;;;;;;5122958;27;20030;-85
2023/06/13 06:59:14;;;;;;;4.05;1.90;;;19.60;63.80;;;;;;5131406;27;20019;-84
2023/06/13 07:01:40;;;;;;;2.00;1.80;;;19.60;63.70;;;;;;5117623;27;20127;-83
2023/06/13 07:04:05;;;;;;;3.80;1.90;;;19.60;63.40;;;;;;5128863;27;20028;-84
2023/06/13 07:06:31;;;;;;;4.43;1.90;;;19.70;63.20;;;;;;5124220;27;20460;-83
2023/06/13 07:08:57;;;;;;;3.63;1.80;;;19.70;62.90;;;;;;5121849;27;20032;-84
2023/06/13 07:11:22;;;;;;;2.53;2.03;;;19.80;63.50;;;;;;5130723;27;20042;-84
2023/06/13 07:13:48;;;;;;;3.53;1.80;;;19.80;62.50;;;;;;5118392;27;20030;-84
2023/06/13 07:16:13;;;;;;;3.42;1.63;;;19.90;61.10;;;;;;5126322;27;20016;-84
2023/06/13 07:18:39;;;;;;;2.58;1.75;;;19.90;59.90;;;;;;5114128;27;20194;-84
2023/06/13 07:21:05;;;;;;;4.25;2.03;;;19.90;60.20;;;;;;5130057;27;20023;-84
2023/06/13 07:23:30;;;;;;;2.95;1.73;;;20.00;58.00;;;;;;5116734;27;20055;-82
2023/06/13 07:25:56;;;;;;;5.38;1.42;;;20.00;57.70;;;;;;5128624;27;20357;-84
2023/06/13 07:28:22;;;;;;;2.92;1.70;;;20.10;56.70;;;;;;5123001;27;20087;-84
2023/06/13 07:30:47;;;;;;;3.10;1.60;;;20.10;56.00;;;;;;5122934;27;20083;-85
2023/06/13 07:33:13;;;;;;;4.18;1.38;;;20.10;56.00;;;;;;5129685;27;20027;-84
2023/06/13 07:35:39;;;;;;;2.90;1.83;;;20.20;56.20;;;;;;5117053;27;20103;-83
2023/06/13 07:38:05;;;;;;;2.55;1.80;;;20.20;55.80;;;;;;5127533;27;20031;-84
2023/06/13 07:40:31;;;;;;;2.97;2.00;;;20.20;55.30;;;;;;5124412;27;20031;-84
2023/06/13 07:42:56;;;;;;;2.90;1.73;;;20.30;54.70;;;;;;5124594;27;20027;-83
2023/06/13 07:45:22;;;;;;;4.70;1.85;;;20.30;55.20;;;;;;5117443;27;20028;-84
2023/06/13 07:47:47;;;;;;;11.30;1.60;;;20.40;55.70;;;;;;5130791;27;20031;-84
2023/06/13 07:50:13;;;;;;;5.95;1.90;;;20.40;56.00;;;;;;5121341;27;20031;-85
2023/06/13 07:52:39;;;;;;;3.47;1.73;;;20.40;56.10;;;;;;5121560;27;20027;-84
2023/06/13 07:55:05;;;;;;;4.95;1.77;;;20.50;55.70;;;;;;5113556;28;20077;-83
2023/06/13 07:57:31;;;;;;;2.95;1.98;;;20.50;55.50;;;;;;5131171;27;20467;-84
2023/06/13 07:59:56;;;;;;;2.75;1.70;;;20.50;55.40;;;;;;5128047;27;20028;-84
2023/06/13 08:02:23;;;;;;;3.47;2.08;;;20.50;55.70;;;;;;5122150;27;20376;-84
2023/06/13 08:04:49;;;;;;;3.22;2.03;;;20.60;56.10;;;;;;5120429;27;20039;-84
2023/06/13 08:07:15;;;;;;;3.10;1.60;;;20.60;55.80;;;;;;5130877;27;20019;-84
2023/06/13 08:09:40;;;;;;;3.65;1.80;;;20.70;55.20;;;;;;5116373;27;20043;-84
2023/06/13 08:12:07;;;;;;;2.80;1.73;;;20.70;55.00;;;;;;5126916;27;20106;-84
2023/06/13 08:14:32;;;;;;;4.50;1.85;;;20.70;55.20;;;;;;5123162;27;20472;-84
2023/06/13 08:16:58;;;;;;;3.65;1.88;;;20.70;55.10;;;;;;5119437;27;20024;-84
2023/06/13 08:19:23;;;;;;;4.30;1.65;;;20.70;55.20;;;;;;5130569;27;20062;-84
2023/06/13 08:21:49;;;;;;;3.58;1.67;;;20.80;55.30;;;;;;5114364;27;20011;-84
2023/06/13 08:24:14;;;;;;;5.00;1.85;;;20.80;55.50;;;;;;5113414;28;20479;-84
2023/06/13 08:26:40;;;;;;;3.40;1.98;;;20.90;55.60;;;;;;5124981;28;20110;-84
2023/06/13 08:29:06;;;;;;;4.00;1.90;;;20.90;55.60;;;;;;5118625;28;20035;-84
2023/06/13 08:31:32;;;;;;;4.70;1.80;;;20.90;55.80;;;;;;5130252;27;20077;-84
2023/06/13 08:34:02;;;;;;;3.45;1.70;;;21.00;56.00;;;;;;5123019;27;20055;-85
2023/06/13 08:36:28;;;;;;;3.53;1.90;;;21.00;56.40;;;;;;5126880;27;20357;-84
2023/06/13 08:38:57;;;;;;;5.40;1.88;;;21.00;56.60;;;;;;5124504;27;20038;-84
2023/06/13 08:41:25;;;;;;;2.90;2.08;;;21.10;56.00;;;;;;5133352;27;20054;-83
2023/06/13 08:43:52;;;;;;;2.33;1.80;;;21.10;55.60;;;;;;5121806;27;20023;-84
2023/06/13 08:46:18;;;;;;;3.88;1.90;;;21.20;55.30;;;;;;5129841;27;20019;-83
2023/06/13 08:48:43;;;;;;;4.72;1.98;;;21.20;55.20;;;;;;5128242;27;20095;-84
2023/06/13 08:51:14;;;;;;;5.03;1.92;;;21.20;55.40;;;;;;5121814;27;20042;-83
2023/06/13 08:53:51;;;;;;;3.30;1.73;;;21.30;55.20;;;;;;5110424;27;20023;-83
2023/06/13 08:56:20;;;;;;;2.85;1.85;;;21.30;54.80;;;;;;5128316;27;20023;-84
2023/06/13 08:58:53;;;;;;;2.50;2.08;;;21.30;53.90;;;;;;5130287;27;20023;-84
2023/06/13 09:01:19;;;;;;;5.63;1.90;;;21.40;54.00;;;;;;5120339;27;20472;-83
2023/06/13 09:03:45;;;;;;;3.47;2.10;;;21.30;53.70;;;;;;5132802;27;20042;-83
2023/06/13 09:06:13;;;;;;;7.35;2.38;;;21.40;54.50;;;;;;5125651;27;20019;-86
2023/06/13 09:08:40;;;;;;;6.22;2.20;;;21.50;54.80;;;;;;5126477;27;20024;-85
2023/06/13 09:11:06;;;;;;;4.85;2.08;;;21.50;54.60;;;;;;5131807;27;20038;-84
2023/06/13 09:13:34;;;;;;;3.25;2.13;;;21.50;55.30;;;;;;5120779;27;20015;-83
2023/06/13 09:16:00;;;;;;;5.40;1.83;;;21.60;55.30;;;;;;5136668;27;20029;-85
2023/06/13 09:18:27;;;;;;;2.60;1.98;;;21.60;55.30;;;;;;5129970;27;20384;-83
2023/06/13 09:20:53;;;;;;;3.88;1.63;;;21.70;55.40;;;;;;5131048;27;20034;-84
2023/06/13 09:23:19;;;;;;;7.40;2.55;;;21.70;54.70;;;;;;5117588;27;20028;-84
2023/06/13 09:25:48;;;;;;;4.05;1.95;;;21.70;54.70;;;;;;5132144;27;20345;-84
2023/06/13 09:28:28;;;;;;;4.07;2.10;;;21.80;55.20;;;;;;5122933;27;20019;-84
2023/06/13 09:30:56;;;;;;;2.45;2.10;;;21.90;55.30;;;;;;5130865;27;20059;-85
2023/06/13 09:33:22;;;;;;;4.22;1.95;;;21.90;55.60;;;;;;5134914;27;20023;-82
2023/06/13 09:35:50;;;;;;;3.88;1.92;;;21.90;54.20;;;;;;5115825;28;20031;-84
2023/06/13 09:38:20;;;;;;;3.92;2.05;;;22.00;54.90;;;;;;5117289;28;20026;-85
2023/06/13 09:40:46;;;;;;;2.13;1.77;;;22.00;55.10;;;;;;5128341;27;20038;-85
2023/06/13 09:43:15;;;;;;;3.45;1.90;;;22.10;54.80;;;;;;5136235;27;20019;-84
2023/06/13 09:45:43;;;;;;;4.60;2.13;;;22.10;54.40;;;;;;5115645;28;20028;-85
2023/06/13 09:48:09;;;;;;;7.28;2.00;;;22.10;53.80;;;;;;5123124;27;20038;-85
2023/06/13 09:50:36;;;;;;;3.10;1.77;;;22.10;54.70;;;;;;5136637;27;20472;-85
2023/06/13 09:53:02;;;;;;;5.38;2.40;;;22.10;54.60;;;;;;5123486;27;20122;-85
2023/06/13 09:55:27;;;;;;;2.10;1.90;;;22.20;54.60;;;;;;5115067;27;20118;-85
2023/06/13 09:57:53;;;;;;;3.40;2.10;;;22.20;54.00;;;;;;5120556;27;20027;-85
2023/06/13 10:00:20;;;;;;;2.42;1.77;;;22.30;54.40;;;;;;5128676;27;20057;-86
2023/06/13 10:02:46;;;;;;;4.38;2.08;;;22.40;53.40;;;;;;5127939;27;20161;-85
2023/06/13 10:05:13;;;;;;;3.17;2.08;;;22.30;53.60;;;;;;5136977;27;20059;-85
2023/06/13 10:07:38;;;;;;;3.95;2.22;;;22.40;54.10;;;;;;5116638;27;20023;-85
2023/06/13 10:10:05;;;;;;;4.28;1.88;;;22.50;54.20;;;;;;5123433;27;20031;-85
2023/06/13 10:12:32;;;;;;;2.10;1.90;;;22.50;53.00;;;;;;5125232;27;20058;-86
2023/06/13 10:15:01;;;;;;;3.13;1.60;;;22.60;53.30;;;;;;5130280;27;20036;-84
2023/06/13 10:17:35;;;;;;;2.92;1.88;;;22.60;52.80;;;;;;5135192;27;20023;-85
2023/06/13 10:20:06;;;;;;;6.22;1.90;;;22.70;52.00;;;;;;5135730;27;20042;-86
2023/06/13 10:22:33;;;;;;;5.32;2.05;;;22.70;53.00;;;;;;5116867;27;20024;-86
2023/06/13 10:24:59;;;;;;;2.63;1.90;;;22.70;53.30;;;;;;5095132;28;20020;-86
2023/06/13 10:27:25;;;;;;;3.03;2.15;;;22.80;53.20;;;;;;5096621;28;20030;-83
2023/06/13 10:30:19;;;;;;;3.28;1.90;;;22.80;51.50;;;;;;5121478;27;20110;-86
2023/06/13 10:33:20;;;;;;;6.47;1.98;;;22.90;51.50;;;;;;5114597;28;20054;-85
2023/06/13 10:36:14;;;;;;;5.50;2.42;;;23.00;51.70;;;;;;5116907;27;20035;-86
2023/06/13 10:38:48;;;;;;;3.20;2.10;;;23.10;51.30;;;;;;5133793;27;20027;-85
2023/06/13 10:41:32;;;;;;;3.17;1.70;;;23.20;52.00;;;;;;5131504;27;20051;-86
2023/06/13 10:44:20;;;;;;;4.15;2.00;;;23.20;51.50;;;;;;5094641;28;20035;-86
2023/06/13 10:46:46;;;;;;;4.95;2.17;;;23.30;51.40;;;;;;5119190;27;20019;-85
2023/06/13 10:49:18;;;;;;;4.97;2.30;;;23.30;50.90;;;;;;5119610;27;20031;-86
2023/06/13 10:51:45;;;;;;;6.68;2.10;;;23.30;50.70;;;;;;5099069;27;20467;-85
2023/06/13 10:54:12;;;;;;;5.05;2.00;;;23.40;51.10;;;;;;5118591;27;20019;-85
2023/06/13 10:56:41;;;;;;;3.17;2.10;;;23.50;50.40;;;;;;5134645;27;20034;-86
2023/06/13 10:59:08;;;;;;;3.92;2.00;;;23.60;50.60;;;;;;5119785;27;20030;-87
2023/06/13 11:01:36;;;;;;;4.28;2.10;;;23.60;50.50;;;;;;5114867;28;20050;-85
2023/06/13 11:04:08;;;;;;;3.13;1.92;;;23.70;51.00;;;;;;5115586;28;20023;-86
2023/06/13 11:06:34;;;;;;;3.55;1.92;;;23.70;51.20;;;;;;5125699;27;20042;-84
2023/06/13 11:09:08;;;;;;;4.22;2.20;;;23.80;50.00;;;;;;5136181;27;20024;-85
2023/06/13 11:11:46;;;;;;;5.10;2.13;;;23.80;49.70;;;;;;5131937;27;20076;-86
2023/06/13 11:14:11;;;;;;;2.55;1.90;;;23.80;50.40;;;;;;5122028;27;20020;-85
2023/06/13 11:16:39;;;;;;;4.22;2.10;;;23.90;50.40;;;;;;5133505;27;20034;-85
2023/06/13 11:19:21;;;;;;;3.03;2.40;;;24.00;50.20;;;;;;5128207;27;20075;-85
2023/06/13 11:22:12;;;;;;;6.43;2.55;;;24.10;49.50;;;;;;5098502;27;20031;-85
2023/06/13 11:24:39;;;;;;;2.40;1.83;;;24.20;49.60;;;;;;5124466;27;20019;-85
2023/06/13 11:27:07;;;;;;;3.20;2.10;;;24.30;50.50;;;;;;5120101;27;20031;-85
2023/06/13 11:29:33;;;;;;;2.92;1.98;;;24.40;49.80;;;;;;5129703;27;20035;-85
2023/06/13 11:32:01;;;;;;;4.22;2.00;;;24.40;50.30;;;;;;5119806;27;20034;-85
2023/06/13 11:34:31;;;;;;;5.13;1.95;;;24.50;49.30;;;;;;5124684;27;20028;-85
2023/06/13 11:37:03;;;;;;;7.05;2.58;;;24.50;48.80;;;;;;5128660;27;20420;-86
2023/06/13 11:39:41;;;;;;;4.00;2.17;;;24.60;49.00;;;;;;5116680;27;20040;-85
2023/06/13 11:42:08;;;;;;;5.65;2.45;;;24.70;48.40;;;;;;5128102;27;20044;-86
2023/06/13 11:44:37;;;;;;;3.80;2.33;;;24.80;47.80;;;;;;5118591;27;20036;-85
2023/06/13 11:47:03;;;;;;;3.78;2.15;;;24.80;48.00;;;;;;5129180;27;20486;-85
2023/06/13 11:49:28;;;;;;;4.53;1.95;;;24.90;49.20;;;;;;5117395;27;20055;-86
2023/06/13 11:51:54;;;;;;;6.57;2.17;;;24.90;48.70;;;;;;5128952;27;20092;-85
2023/06/13 11:54:29;;;;;;;7.93;2.25;;;24.90;47.90;;;;;;5121848;27;20062;-85
2023/06/13 11:56:54;;;;;;;3.90;2.10;;;24.90;48.30;;;;;;5119951;27;20019;-86
2023/06/13 11:59:22;;;;;;;6.60;2.30;;;24.90;48.20;;;;;;5130286;27;20031;-85
2023/06/13 12:01:49;;;;;;;4.00;2.78;;;25.10;47.80;;;;;;5118523;27;20019;-85
2023/06/13 12:04:16;;;;;;;4.72;2.20;;;25.10;48.00;;;;;;5125462;27;20028;-85
2023/06/13 12:06:42;;;;;;;3.42;1.95;;;25.20;47.90;;;;;;5125508;27;20039;-86
2023/06/13 12:09:07;;;;;;;5.53;2.05;;;25.20;47.80;;;;;;5118210;27;20023;-85
2023/06/13 12:11:33;;;;;;;3.53;1.92;;;25.30;48.20;;;;;;5129565;27;20043;-84
2023/06/13 12:14:00;;;;;;;5.32;2.17;;;25.30;47.70;;;;;;5118507;27;20292;-85
2023/06/13 12:16:37;;;;;;;5.93;2.20;;;25.40;48.50;;;;;;5122744;27;20024;-85
2023/06/13 12:19:04;;;;;;;4.40;2.20;;;25.40;46.90;;;;;;5113351;28;20118;-84
2023/06/13 12:21:31;;;;;;;1.88;1.42;;;25.40;47.60;;;;;;5129317;27;20118;-85
2023/06/13 12:23:59;;;;;;;4.35;2.13;;;25.50;46.70;;;;;;5104772;27;20087;-85
2023/06/13 12:26:26;;;;;;;2.75;1.85;;;25.50;46.20;;;;;;5115701;28;20019;-86
2023/06/13 12:28:55;;;;;;;5.55;2.30;;;25.70;47.00;;;;;;5127359;28;20059;-85
2023/06/13 12:31:36;;;;;;;6.07;2.55;;;25.70;46.20;;;;;;5116343;28;20084;-85
2023/06/13 12:34:06;;;;;;;4.93;2.13;;;25.80;46.80;;;;;;5127993;28;20042;-84
2023/06/13 12:36:44;;;;;;;4.47;2.73;;;25.90;46.80;;;;;;5122460;28;20042;-85
2023/06/13 12:39:11;;;;;;;4.07;2.47;;;25.90;45.80;;;;;;5118608;28;20733;-85
2023/06/13 12:41:38;;;;;;;4.65;2.30;;;26.00;46.20;;;;;;5128739;28;20056;-85
2023/06/13 12:44:06;;;;;;;6.03;3.05;;;26.00;46.10;;;;;;5119475;28;20019;-85
2023/06/13 12:46:38;;;;;;;3.38;2.30;;;26.10;46.20;;;;;;5122825;28;20023;-85
2023/06/13 12:49:07;;;;;;;3.67;2.20;;;26.10;46.10;;;;;;5127920;28;20054;-84
2023/06/13 12:51:33;;;;;;;4.93;2.70;;;26.10;44.50;;;;;;5116018;28;20043;-85